• Join FlightAware (Why Join?)
  • Login
  • US Flag 
06:48PM EDT


 

Airport Tracker/Info


-or-


 

Live Flight TrackerFlight Track Log ✈ N1873 ✈ 22-Apr-2014 ✈ KBWG - KPWK

Flight Track Log - Related Links

Times and Time Zones

All times are in EDT time to prevent confusion due to time zone crossing. See the N1873 flight status page for this flight to view local times or setup timezone preferences in your user account.

Time Position Orientation Groundspeed Altitude Reporting Facility
EDT Latitude Longitude Course Direction KTS MPH feet Rate Location/Type
01:11PM 37.5768 -86.5120 351° North  Level FlightAware Approximate
01:11PM 37.1453 -86.4147 354° North 264 304 9,600  Level Indianapolis Center
01:12PM 37.6815 -86.5329 351° North  Level FlightAware Approximate
01:12PM 37.2300 -86.4289 352° North 297 342 10,600  Level Indianapolis Center
01:13PM 37.7863 -86.5539 351° North  Level FlightAware Approximate
01:13PM 37.3272 -86.4475 351° North 338 389 12,700  Level Indianapolis Center
01:14PM 37.8908 -86.5769 349° North  Level FlightAware Approximate
01:14PM 37.4239 -86.4653 352° North 345 397 15,000  Level Indianapolis Center
01:15PM 37.9953 -86.5991 351° North  Level FlightAware Approximate
01:15PM 37.5225 -86.4831 352° North 348 400 17,000  Level Indianapolis Center
01:16PM 38.1007 -86.6144 354° North  Level FlightAware Approximate
01:16PM 37.6394 -86.5042 352° North 358 412 19,400  Level Indianapolis Center
01:17PM 37.7428 -86.5250 351° North 366 421 21,400 1,920 Climbing Indianapolis Center
01:18PM 37.8514 -86.5450 352° North 383 441 23,400 1,920 Climbing Indianapolis Center
01:19PM 37.9619 -86.5656 352° North 394 453 25,400 1,920 Climbing Indianapolis Center
01:20PM 38.0756 -86.5864 352° North 407 468 27,400 1,200 Climbing Indianapolis Center
01:21PM 38.1933 -86.6097 351° North 421 484 28,000 240 Climbing Indianapolis Center
01:22PM 38.3233 -86.6339 352° North 461 531 28,000  Level Indianapolis Center
01:23PM 38.4839 -86.6631 352° North 483 556 28,000  Level Indianapolis Center
01:24PM 38.6150 -86.6892 351° North 483 556 28,000  Level Indianapolis Center
01:26PM 38.7450 -86.7147 351° North 479 551 28,000  Level Indianapolis Center
01:27PM 38.8756 -86.7386 352° North 477 549 28,000  Level Indianapolis Center
01:28PM 39.0044 -86.7631 352° North 472 543 28,000  Level Indianapolis Center
01:29PM 39.1428 -86.7892 352° North 467 537 28,000  Level Indianapolis Center
01:30PM 39.2694 -86.8136 352° North 464 534 28,000  Level Indianapolis Center
01:31PM 39.3964 -86.8386 351° North 463 533 28,000  Level Indianapolis Center
01:32PM 39.5231 -86.8633 351° North 462 532 28,000  Level Indianapolis Center
01:33PM 39.6742 -86.8928 351° North 457 526 28,000 -300 Level Indianapolis Center
01:34PM 39.7997 -86.9175 351° North 457 526 27,500 -780 Descending Indianapolis Center
01:35PM 39.9244 -86.9408 352° North 454 522 26,500 -1,140 Descending Indianapolis Center
01:36PM 40.0494 -86.9661 351° North 454 522 25,200 -1,380 Descending Indianapolis Center
01:37PM 40.1722 -86.9914 351° North 449 517 23,800 -1,560 Descending Chicago Center
01:38PM 40.2925 -87.0172 351° North 439 505 22,100 -1,920 Descending Chicago Center
01:39PM 40.4094 -87.0386 352° North 423 487 19,900 -2,100 Descending Chicago Center
01:40PM 40.5214 -87.0625 351° North 412 474 17,800 -1,920 Descending Chicago Center
01:41PM 40.6256 -87.0836 351° North 382 440 16,000 -1,800 Descending Chicago Center
01:42PM 40.7350 -87.1047 352° North 364 419 14,200 -1,740 Descending Chicago Center
01:43PM 40.8358 -87.1253 351° North 365 420 12,500 -1,740 Descending Chicago Center
01:44PM 40.9325 -87.1458 351° North 358 412 10,700 -1,500 Descending Chicago Center
01:45PM 41.0400 -87.1683 351° North 313 360 9,400 -1,260 Descending Chicago Center
01:46PM 41.1053 -87.1817 351° North 243 280 8,200 -1,320 Descending Chicago Center
01:47PM 41.1758 -87.1956 352° North 239 275 6,700 -1,380 Descending Chicago Center
01:48PM 41.2403 -87.2089 351° North 238 274 5,400 -1,320 Descending Chicago Center
01:49PM 41.3072 -87.2231 351° North 230 265 4,000 -720 Descending Chicago Center
01:50PM 41.3733 -87.2367 351° North 237 273 4,000  Level Chicago Center
01:51PM 41.4450 -87.2517 351° North 242 278 4,000  Level Chicago Center
01:52PM 41.5114 -87.2664 351° North 242 278 4,000  Level Chicago Center
01:53PM 41.5778 -87.2839 349° North 242 278 4,000 -180 Level Chicago Center
01:54PM 41.6444 -87.3200 338° Northwest 242 278 3,700 -540 Descending Chicago Center
01:55PM 41.7050 -87.3525 338° Northwest 239 275 3,000 -360 Descending Chicago Center
01:56PM 41.7733 -87.3886 338° Northwest 244 281 3,000  Level Chicago Center
01:57PM 41.8361 -87.4217 339° North 246 283 3,000  Level Chicago Center
01:59PM 41.9022 -87.4553 339° North 240 276 3,000  Level Chicago Center
02:00PM 41.9642 -87.4869 339° North 240 276 3,000  Level Chicago Center
02:01PM 42.0311 -87.5211 339° North 240 276 3,000  Level Chicago Center
02:02PM 42.0922 -87.5519 339° North 239 275 3,000  Level Chicago Center
02:03PM 42.1536 -87.6028 328° Northwest 239 275 3,000  Level Chicago Center
02:04PM 42.2011 -87.6611 318° Northwest 240 276 3,000  Level Chicago Center
02:05PM 42.2211 -87.7478 287° West 241 277 3,000  Level Chicago Center
02:06PM 42.2419 -87.8425 287° West 242 278 3,000 -120 Level Chicago Center
02:07PM 42.2431 -87.9194 271° West 226 260 2,800 -540 Descending Chicago Center
02:08PM 42.1786 -87.9378 192° South 222 255 2,000 -900 Descending Chicago Center
02:09PM 42.1386 -87.9172 159° South 165 190 1,000 -1,020 Descending Chicago Center
02:11PM 42.1143 -87.9015 169° South  Level Estimated